In Rescue
 
Open Full Screen Window  High Contrast Mode
Wind Gusting 19 knots
13
May 13, 2021 10:40 AM CDT
Weather Information
Wind Direction
  240 °
Wind Speed
  13 kt (15 mph)
Wind Gust
  19 kt (22 mph)
Altimeter
30.28 in
Visibility
10 SM
Temperature
18° C
64° F
Dewpoint
-02° C
28° F
Humidity
26%
1hr Rain Fall
00.00 in.
24hr Rain Fall
00.00 in.
Sky Condition
Scattered @ 8,500 ft
VFR

METAR KMVE 131540Z AUTO 24013G19KT 10SM SCT085 18/M02 A3028 RMK AO2

FAA Disclaimer: The data displayed is for advisory purposes only and is not to be used for flight planning or operations.